.
WxDataArchive / Data Records for 2011-09-16
2011-09-15 September 2011 2011-09-17

Data Records for Friday, 16 September 2011

Time	Temp	Chill	HIndex	Humid	Dewpt	 Wind 	HiWind	WindDir	Rain 	Barom 
-----	----	-----	------	-----	-----	------	------	-------	-----	----- 
00:00	42.6	42.6	42.6	86	38.7	0	0	---	0.00	30.343 
00:05	42.8	42.8	42.8	86	38.9	0	0	---	0.00	30.343 
00:10	42.9	42.9	42.9	86	39.0	0	0	---	0.00	30.343 
00:15	43.3	43.3	43.3	86	39.4	0	0	---	0.00	30.346 
00:20	43.6	43.6	43.6	86	39.7	0	0	---	0.00	30.346 
00:25	43.8	43.8	43.8	85	39.6	0	0	---	0.00	30.346 
00:30	44.1	44.1	44.1	85	39.9	0	0	---	0.00	30.347 
00:35	44.3	44.3	44.3	84	39.8	0	0	---	0.00	30.347 
00:40	44.6	44.6	44.6	84	40.1	0	0	---	0.00	30.347 
00:45	44.8	44.8	44.8	83	40.0	0	0	---	0.00	30.345 
00:50	44.8	44.8	44.8	83	40.0	0	0	---	0.00	30.345 
00:55	44.8	44.8	44.8	82	39.6	0	0	---	0.00	30.345 
01:00	44.8	44.8	44.8	82	39.6	0	0	---	0.00	30.347 
01:05	44.8	44.8	44.8	82	39.6	0	0	---	0.00	30.347 
01:10	44.6	44.6	44.6	82	39.4	0	0	---	0.00	30.347 
01:15	44.5	44.5	44.5	82	39.4	0	0	---	0.00	30.345 
01:20	44.3	44.3	44.3	82	39.2	0	0	---	0.00	30.345 
01:25	44.2	44.2	44.2	83	39.4	0	0	---	0.00	30.345 
01:30	44.1	44.1	44.1	83	39.3	0	0	---	0.00	30.344 
01:35	44.1	44.1	44.1	83	39.3	0	0	---	0.00	30.344 
01:40	43.9	43.9	43.9	83	39.1	0	0	---	0.00	30.344 
01:45	43.8	43.8	43.8	84	39.3	0	0	---	0.00	30.345 
01:50	43.5	43.5	43.5	84	39.0	0	0	---	0.00	30.345 
01:55	43.3	43.3	43.3	84	38.8	0	0	---	0.00	30.345 
02:00	43.1	43.1	43.1	84	38.6	0	0	---	0.00	30.345 
02:05	42.9	42.9	42.9	84	38.4	0	0	---	0.00	30.345 
02:10	42.6	42.6	42.6	85	38.4	0	0	---	0.00	30.345 
02:15	42.5	42.5	42.5	85	38.3	0	0	---	0.00	30.349 
02:20	42.3	42.3	42.3	86	38.4	0	0	---	0.00	30.349 
02:25	42.2	42.2	42.2	86	38.3	0	0	---	0.00	30.349 
02:30	42.1	42.1	42.1	86	38.2	0	0	---	0.00	30.351 
02:35	41.9	41.9	41.9	87	38.3	0	0	---	0.00	30.351 
02:40	41.8	41.8	41.8	87	38.2	0	0	---	0.00	30.351 
02:45	41.8	41.8	41.8	87	38.2	0	0	---	0.00	30.350 
02:50	41.6	41.6	41.6	88	38.3	0	0	---	0.00	30.350 
02:55	41.6	41.6	41.6	88	38.3	0	0	---	0.00	30.350 
03:00	41.6	41.6	41.6	88	38.3	0	0	---	0.00	30.349 
03:05	41.5	41.5	41.5	88	38.2	0	0	---	0.00	30.349 
03:10	41.5	41.5	41.5	88	38.2	0	0	---	0.00	30.349 
03:15	41.3	41.3	41.3	89	38.3	0	0	---	0.00	30.345 
03:20	41.2	41.2	41.2	89	38.2	0	0	---	0.00	30.345 
03:25	41.2	41.2	41.2	89	38.2	0	0	---	0.00	30.345 
03:30	41.2	41.2	41.2	89	38.2	0	0	---	0.00	30.344 
03:35	41.2	41.2	41.2	89	38.2	0	0	---	0.00	30.344 
03:40	41.2	41.2	41.2	90	38.5	0	0	---	0.00	30.344 
03:45	41.1	41.1	41.1	90	38.4	0	0	---	0.00	30.345 
03:50	41.1	41.1	41.1	90	38.4	0	0	---	0.00	30.345 
03:55	40.9	40.9	40.9	90	38.2	0	0	---	0.00	30.345 
04:00	40.8	40.8	40.8	90	38.1	0	0	---	0.00	30.346 
04:05	40.8	40.8	40.8	90	38.1	0	0	---	0.00	30.346 
04:10	40.8	40.8	40.8	90	38.1	0	0	---	0.00	30.346 
04:15	40.8	40.8	40.8	90	38.1	0	0	---	0.00	30.346 
04:20	40.6	40.6	40.6	91	38.2	0	0	---	0.00	30.346 
04:25	40.6	40.6	40.6	91	38.2	0	0	---	0.00	30.346 
04:30	40.6	40.6	40.6	91	38.2	0	0	---	0.00	30.346 
04:35	40.6	40.6	40.6	91	38.2	0	0	---	0.00	30.346 
04:40	40.6	40.6	40.6	91	38.2	0	0	---	0.00	30.346 
04:45	40.6	40.6	40.6	91	38.2	0	0	---	0.00	30.348 
04:50	40.5	40.5	40.5	91	38.1	0	0	---	0.00	30.348 
04:55	40.3	40.3	40.3	91	37.9	0	0	---	0.00	30.348 
05:00	40.3	40.3	40.3	91	37.9	0	0	---	0.00	30.353 
05:05	40.3	40.3	40.3	92	38.2	0	0	---	0.00	30.353 
05:10	40.2	40.2	40.2	92	38.1	0	0	---	0.00	30.353 
05:15	40.2	40.2	40.2	92	38.1	0	0	---	0.00	30.360 
05:20	40.2	40.2	40.2	92	38.1	0	0	---	0.00	30.360 
05:25	40.2	40.2	40.2	92	38.1	0	0	---	0.00	30.360 
05:30	40.2	40.2	40.2	92	38.1	0	0	---	0.00	30.364 
05:35	40.2	40.2	40.2	92	38.1	0	0	---	0.00	30.364 
05:40	40.2	40.2	40.2	92	38.1	0	0	---	0.00	30.364 
05:45	40.1	40.1	40.1	92	38.0	0	0	---	0.00	30.366 
05:50	40.1	40.1	40.1	92	38.0	0	0	---	0.00	30.366 
05:55	40.1	40.1	40.1	92	38.0	0	0	---	0.00	30.366 
06:00	40.1	40.1	40.1	92	38.0	0	0	---	0.00	30.369 
06:05	40.1	40.1	40.1	92	38.0	0	0	---	0.00	30.369 
06:10	40.1	40.1	40.1	92	38.0	0	0	---	0.00	30.369 
06:15	40.1	40.1	40.1	92	38.0	0	0	---	0.00	30.372 
06:20	40.2	40.2	40.2	93	38.3	0	0	---	0.00	30.372 
06:25	40.3	40.3	40.3	93	38.4	0	0	---	0.00	30.372 
06:30	40.3	40.3	40.3	93	38.4	0	0	---	0.00	30.374 
06:35	40.5	40.5	40.5	93	38.6	0	0	---	0.00	30.374 
06:40	40.6	40.6	40.6	93	38.7	0	0	---	0.00	30.374 
06:45	40.6	40.6	40.6	93	38.7	0	0	---	0.00	30.377 
06:50	40.8	40.8	40.8	93	38.9	0	1	68	0.00	30.377 
06:55	40.8	40.8	40.8	93	38.9	0	1	68	0.00	30.377 
07:00	40.8	40.8	40.8	93	38.9	0	0	---	0.00	30.379 
07:05	40.9	40.9	40.9	93	39.0	0	1	68	0.00	30.379 
07:10	41.1	41.1	41.1	93	39.2	0	0	---	0.00	30.379 
07:15	41.1	41.1	41.1	93	39.2	0	0	---	0.00	30.387 
07:20	41.2	41.2	41.2	93	39.3	0	0	---	0.00	30.387 
07:25	41.1	41.1	41.1	93	39.2	0	0	---	0.00	30.387 
07:30	41.2	41.2	41.2	93	39.3	0	1	68	0.00	30.390 
07:35	41.2	41.2	41.2	93	39.3	0	0	---	0.00	30.390 
07:40	41.5	41.5	41.5	93	39.6	0	1	68	0.00	30.390 
07:45	41.6	41.6	41.6	92	39.5	0	0	---	0.00	30.393 
07:50	41.8	41.8	41.8	92	39.6	0	1	68	0.00	30.393 
07:55	41.9	41.9	41.9	92	39.7	0	0	---	0.00	30.393 
08:00	42.2	42.2	42.2	91	39.8	0	0	---	0.00	30.399 
08:05	42.3	42.3	42.3	91	39.9	0	1	68	0.00	30.399 
08:10	42.6	42.6	42.6	90	39.9	0	2	68	0.00	30.399 
08:15	42.8	42.8	42.8	90	40.1	0	1	68	0.00	30.404 
08:20	42.9	42.9	42.9	89	39.9	0	1	68	0.00	30.404 
08:25	43.2	43.2	43.2	88	39.9	0	2	68	0.00	30.404 
08:30	43.3	43.3	43.3	88	40.0	0	2	68	0.00	30.404 
08:35	43.5	43.5	43.5	87	39.9	0	2	68	0.00	30.404 
08:40	43.6	43.6	43.6	87	40.0	0	2	68	0.00	30.404 
08:45	43.9	43.9	43.9	86	40.0	1	3	112	0.00	30.402 
08:50	44.2	44.2	44.2	86	40.3	0	2	112	0.00	30.402 
08:55	44.5	44.5	44.5	86	40.6	0	1	112	0.00	30.402 
09:00	44.8	44.8	44.8	86	40.9	0	1	112	0.00	30.401 
09:05	45.1	45.1	45.1	86	41.2	0	1	112	0.00	30.401 
09:10	45.4	45.4	45.4	86	41.5	0	0	---	0.00	30.401 
09:15	45.7	45.7	45.7	85	41.5	0	1	112	0.00	30.405 
09:20	46.0	46.0	46.0	84	41.4	0	2	112	0.00	30.405 
09:25	46.1	46.1	46.1	84	41.5	0	4	112	0.00	30.405 
09:30	46.2	46.2	46.2	83	41.3	1	2	112	0.00	30.407 
09:35	46.5	46.5	46.5	83	41.6	0	2	112	0.00	30.407 
09:40	46.8	46.8	46.8	83	41.9	0	1	112	0.00	30.407 
09:45	47.0	47.0	47.0	82	41.8	1	3	112	0.00	30.409 
09:50	47.3	47.3	47.3	81	41.8	0	3	112	0.00	30.409 
09:55	47.4	47.4	47.4	81	41.9	1	3	112	0.00	30.409 
10:00	47.6	47.6	47.6	80	41.7	1	4	112	0.00	30.410 
10:05	47.9	47.9	47.9	81	42.4	0	2	112	0.00	30.410 
10:10	48.0	48.0	48.0	81	42.5	0	2	112	0.00	30.410 
10:15	48.2	48.2	48.2	80	42.3	0	2	112	0.00	30.408 
10:20	48.3	48.3	48.3	80	42.4	0	3	112	0.00	30.408 
10:25	48.5	48.5	48.5	81	42.9	0	1	112	0.00	30.408 
10:30	48.6	48.6	48.6	81	43.0	0	0	---	0.00	30.411 
10:35	48.8	48.8	48.8	81	43.2	0	3	112	0.00	30.411 
10:40	49.1	49.1	49.1	81	43.5	0	3	112	0.00	30.411 
10:45	49.1	49.1	49.1	80	43.2	0	2	112	0.00	30.412 
10:50	49.2	49.2	49.2	79	43.0	1	4	90	0.00	30.412 
10:55	49.2	49.2	49.2	79	43.0	1	3	90	0.00	30.412 
11:00	49.2	49.2	49.2	78	42.6	2	4	90	0.00	30.409 
11:05	49.4	49.4	49.4	80	43.5	1	4	90	0.00	30.409 
11:10	49.5	49.5	49.5	79	43.3	1	4	90	0.00	30.409 
11:15	49.8	49.8	49.8	79	43.6	1	4	90	0.00	30.408 
11:20	50.2	50.2	50.2	80	44.3	0	2	90	0.00	30.408 
11:25	51.0	51.0	51.0	78	44.4	1	3	90	0.00	30.408 
11:30	51.6	51.6	51.6	77	44.6	1	4	90	0.00	30.414 
11:35	52.2	52.2	52.2	74	44.2	1	3	90	0.00	30.414 
11:40	52.8	52.8	52.8	72	44.0	1	3	90	0.00	30.414 
11:45	53.1	53.1	53.1	69	43.2	2	5	90	0.00	30.416 
11:50	53.3	53.3	53.3	69	43.4	2	5	90	0.00	30.416 
11:55	53.3	53.3	53.3	69	43.4	1	4	90	0.00	30.416 
12:00	53.5	53.5	53.5	69	43.6	1	4	90	0.00	30.411 
12:05	53.9	53.9	53.9	69	44.0	2	4	112	0.00	30.411 
12:10	54.5	54.5	54.5	70	44.9	1	4	90	0.00	30.411 
12:15	54.8	54.8	54.8	68	44.4	2	5	90	0.00	30.400 
12:20	55.0	55.0	55.0	65	43.5	2	5	90	0.00	30.400 
12:25	55.3	55.3	55.3	65	43.7	1	4	112	0.00	30.400 
12:30	55.6	55.6	55.6	64	43.6	1	4	112	0.00	30.398 
12:35	55.7	55.7	55.7	63	43.3	1	4	112	0.00	30.398 
12:40	55.7	55.7	55.7	64	43.7	1	5	68	0.00	30.398 
12:45	55.7	55.7	55.7	62	42.9	1	5	68	0.00	30.386 
12:50	55.9	55.9	55.9	63	43.5	2	5	112	0.00	30.386 
12:55	55.9	55.9	55.9	62	43.1	2	6	90	0.00	30.386 
13:00	56.0	56.0	56.0	60	42.3	1	3	90	0.00	30.393 
13:05	56.0	56.0	56.0	59	41.9	1	5	112	0.00	30.393 
13:10	56.0	56.0	56.0	58	41.4	1	5	68	0.00	30.393 
13:15	55.9	55.9	55.9	59	41.8	1	3	68	0.00	30.391 
13:20	56.0	56.0	56.0	62	43.2	1	3	68	0.00	30.391 
13:25	55.9	55.9	55.9	56	40.4	1	3	90	0.00	30.391 
13:30	56.2	56.2	56.2	58	41.6	0	2	90	0.00	30.387 
13:35	56.2	56.2	56.2	56	40.7	2	4	90	0.00	30.387 
13:40	56.3	56.3	56.3	57	41.3	1	4	90	0.00	30.387 
13:45	56.5	56.5	56.5	55	40.5	2	6	90	0.00	30.384 
13:50	56.6	56.6	56.6	55	40.6	2	4	90	0.00	30.384 
13:55	56.7	56.7	56.7	55	40.7	2	5	112	0.00	30.384 
14:00	56.9	56.9	56.9	54	40.4	2	4	112	0.00	30.377 
14:05	56.7	56.7	56.7	52	39.3	3	6	68	0.00	30.377 
14:10	56.9	56.9	56.9	54	40.4	1	3	68	0.00	30.377 
14:15	57.5	57.5	57.5	53	40.5	2	4	90	0.00	30.371 
14:20	58.3	58.3	58.3	52	40.8	2	7	90	0.00	30.371 
14:25	58.7	58.7	58.7	50	40.1	2	5	90	0.00	30.371 
14:30	58.9	58.9	58.9	52	41.3	2	5	112	0.00	30.368 
14:35	59.0	59.0	59.0	51	40.9	1	4	90	0.00	30.368 
14:40	59.2	59.2	59.2	52	41.6	2	6	90	0.00	30.368 
14:45	58.9	58.9	58.9	51	40.8	1	4	90	0.00	30.361 
14:50	58.6	58.6	58.6	53	41.5	1	6	90	0.00	30.361 
14:55	58.6	58.6	58.6	51	40.5	1	3	90	0.00	30.361 
15:00	58.4	58.4	58.4	53	41.3	1	5	90	0.00	30.356 
15:05	58.3	58.3	58.3	52	40.8	2	6	68	0.00	30.356 
15:10	58.0	58.0	58.0	53	41.0	1	3	45	0.00	30.356 
15:15	57.8	57.8	57.8	54	41.3	1	5	68	0.00	30.354 
15:20	57.8	57.8	57.8	54	41.3	1	7	112	0.00	30.354 
15:25	58.0	58.0	58.0	54	41.4	1	3	112	0.00	30.354 
15:30	58.1	58.1	58.1	54	41.5	2	4	22	0.00	30.352 
15:35	58.3	58.3	58.3	57	43.1	1	4	68	0.00	30.352 
15:40	58.7	58.7	58.7	54	42.1	2	5	68	0.00	30.352 
15:45	59.0	59.0	59.0	54	42.4	1	4	68	0.00	30.349 
15:50	59.0	59.0	59.0	53	41.9	2	5	68	0.00	30.349 
15:55	59.2	59.2	59.2	56	43.5	1	3	112	0.00	30.349 
16:00	59.0	59.0	59.0	53	41.9	2	6	90	0.00	30.345 
16:05	58.7	58.7	58.7	53	41.6	1	5	90	0.00	30.345 
16:10	58.7	58.7	58.7	54	42.1	1	4	90	0.00	30.345 
16:15	58.6	58.6	58.6	53	41.5	1	4	90	0.00	30.339 
16:20	58.6	58.6	58.6	54	42.0	1	6	90	0.00	30.339 
16:25	58.7	58.7	58.7	53	41.6	3	6	90	0.00	30.339 
16:30	58.6	58.6	58.6	53	41.5	2	6	68	0.00	30.339 
16:35	58.7	58.7	58.7	53	41.6	1	3	68	0.00	30.339 
16:40	58.9	58.9	58.9	52	41.3	1	5	68	0.00	30.339 
16:45	59.0	59.0	59.0	53	41.9	2	5	90	0.00	30.331 
16:50	59.0	59.0	59.0	53	41.9	2	4	112	0.00	30.331 
16:55	58.9	58.9	58.9	53	41.8	3	7	90	0.00	30.331 
17:00	58.7	58.7	58.7	54	42.1	2	6	90	0.00	30.323 
17:05	58.9	58.9	58.9	53	41.8	2	7	90	0.00	30.323 
17:10	59.2	59.2	59.2	53	42.1	2	5	90	0.00	30.323 
17:15	59.3	59.3	59.3	54	42.7	2	5	112	0.00	30.320 
17:20	59.5	59.5	59.5	52	41.9	2	6	112	0.00	30.320 
17:25	59.3	59.3	59.3	52	41.7	2	5	90	0.00	30.320 
17:30	59.2	59.2	59.2	53	42.1	1	5	90	0.00	30.323 
17:35	59.2	59.2	59.2	53	42.1	2	5	68	0.00	30.323 
17:40	59.0	59.0	59.0	53	41.9	2	5	68	0.00	30.323 
17:45	59.0	59.0	59.0	54	42.4	1	4	90	0.00	30.323 
17:50	59.0	59.0	59.0	54	42.4	2	4	90	0.00	30.323 
17:55	58.9	58.9	58.9	53	41.8	1	5	90	0.00	30.323 
18:00	58.9	58.9	58.9	54	42.3	1	3	90	0.00	30.316 
18:05	58.9	58.9	58.9	55	42.8	1	3	90	0.00	30.316 
18:10	58.7	58.7	58.7	56	43.0	0	2	90	0.00	30.316 
18:15	58.6	58.6	58.6	55	42.5	1	5	90	0.00	30.320 
18:20	58.4	58.4	58.4	56	42.8	1	4	90	0.00	30.320 
18:25	58.3	58.3	58.3	57	43.1	1	2	90	0.00	30.320 
18:30	58.1	58.1	58.1	57	42.9	0	3	90	0.00	30.318 
18:35	58.1	58.1	58.1	58	43.4	1	3	90	0.00	30.318 
18:40	58.0	58.0	58.0	58	43.3	1	3	90	0.00	30.318 
18:45	57.8	57.8	57.8	59	43.6	1	5	90	0.00	30.315 
18:50	57.6	57.6	57.6	60	43.8	1	3	90	0.00	30.315 
18:55	57.5	57.5	57.5	61	44.2	1	4	90	0.00	30.315 
19:00	57.5	57.5	57.5	61	44.2	1	3	90	0.00	30.320 
19:05	57.3	57.3	57.3	62	44.4	0	3	90	0.00	30.320 
19:10	57.2	57.2	57.2	62	44.3	1	3	90	0.00	30.320 
19:15	57.2	57.2	57.2	62	44.3	1	4	90	0.00	30.320 
19:20	57.0	57.0	57.0	62	44.1	0	1	90	0.00	30.320 
19:25	56.9	56.9	56.9	63	44.4	0	0	---	0.00	30.320 
19:30	56.7	56.7	56.7	63	44.2	0	2	90	0.00	30.318 
19:35	56.6	56.6	56.6	63	44.2	0	1	90	0.00	30.318 
19:40	56.6	56.6	56.6	64	44.6	0	0	---	0.00	30.318 
19:45	56.5	56.5	56.5	65	44.9	0	0	---	0.00	30.318 
19:50	56.3	56.3	56.3	65	44.7	0	1	90	0.00	30.318 
19:55	56.2	56.2	56.2	65	44.6	0	1	90	0.00	30.318 
20:00	56.0	56.0	56.0	65	44.4	0	1	90	0.00	30.317 
20:05	56.0	56.0	56.0	66	44.8	0	2	90	0.00	30.317 
20:10	55.9	55.9	55.9	66	44.7	0	2	90	0.00	30.317 
20:15	55.7	55.7	55.7	66	44.5	0	1	90	0.00	30.313 
20:20	55.6	55.6	55.6	65	44.0	0	2	90	0.00	30.313 
20:25	55.6	55.6	55.6	65	44.0	0	2	90	0.00	30.313 
20:30	55.4	55.4	55.4	65	43.8	0	3	90	0.00	30.319 
20:35	55.4	55.4	55.4	65	43.8	0	1	90	0.00	30.319 
20:40	55.3	55.3	55.3	65	43.7	0	2	90	0.00	30.319 
20:45	55.1	55.1	55.1	65	43.5	0	1	90	0.00	30.321 
20:50	55.1	55.1	55.1	66	43.9	0	1	90	0.00	30.321 
20:55	55.0	55.0	55.0	66	43.9	0	1	90	0.00	30.321 
21:00	54.8	54.8	54.8	66	43.7	0	3	90	0.00	30.324 
21:05	54.8	54.8	54.8	66	43.7	0	0	---	0.00	30.324 
21:10	54.8	54.8	54.8	67	44.1	0	0	---	0.00	30.324 
21:15	54.7	54.7	54.7	67	44.0	0	1	90	0.00	30.325 
21:20	54.7	54.7	54.7	67	44.0	0	1	90	0.00	30.325 
21:25	54.5	54.5	54.5	67	43.8	0	0	---	0.00	30.325 
21:30	54.5	54.5	54.5	68	44.2	0	1	90	0.00	30.333 
21:35	54.4	54.4	54.4	68	44.1	0	2	90	0.00	30.333 
21:40	54.4	54.4	54.4	68	44.1	0	3	90	0.00	30.333 
21:45	54.4	54.4	54.4	68	44.1	0	2	90	0.00	30.331 
21:50	54.2	54.2	54.2	69	44.3	0	0	---	0.00	30.331 
21:55	54.2	54.2	54.2	68	43.9	0	4	90	0.00	30.331 
22:00	54.1	54.1	54.1	69	44.2	0	2	90	0.00	30.327 
22:05	54.1	54.1	54.1	69	44.2	0	1	90	0.00	30.327 
22:10	54.1	54.1	54.1	69	44.2	1	3	90	0.00	30.327 
22:15	54.1	54.1	54.1	70	44.5	1	3	90	0.00	30.320 
22:20	53.9	53.9	53.9	70	44.3	1	3	90	0.00	30.320 
22:25	53.8	53.8	53.8	70	44.2	1	3	90	0.00	30.320 
22:30	53.8	53.8	53.8	70	44.2	0	2	90	0.00	30.326 
22:35	53.6	53.6	53.6	70	44.1	1	4	90	0.00	30.326 
22:40	53.6	53.6	53.6	71	44.4	1	4	90	0.00	30.326 
22:45	53.5	53.5	53.5	72	44.7	1	3	90	0.00	30.317 
22:50	53.3	53.3	53.3	73	44.9	1	4	90	0.00	30.317 
22:55	53.2	53.2	53.2	73	44.8	0	2	90	0.00	30.317 
23:00	53.1	53.1	53.1	73	44.7	2	4	90	0.00	30.318 
23:05	53.2	53.2	53.2	70	43.7	2	10	90	0.00	30.318 
23:10	53.3	53.3	53.3	69	43.4	0	2	90	0.00	30.318 
23:15	53.5	53.5	53.5	68	43.2	1	5	90	0.00	30.309 
23:20	53.6	53.6	53.6	68	43.3	2	7	90	0.00	30.309 
23:25	53.6	53.6	53.6	69	43.7	2	7	68	0.00	30.309 
23:30	53.5	53.5	53.5	69	43.6	3	6	90	0.00	30.293 
23:35	53.5	53.5	53.5	69	43.6	2	6	90	0.00	30.293 
23:40	53.3	53.3	53.3	70	43.8	1	6	68	0.00	30.293 
23:45	53.3	53.3	53.3	70	43.8	2	4	68	0.00	30.300 
23:50	53.2	53.2	53.2	70	43.7	1	3	68	0.00	30.300 
23:55	53.2	53.2	53.2	69	43.3	1	4	68	0.00	30.300 

CoCoRaHS
IN-AL-39
A2 Web Hosting
Creative Commons License
GoDaddy
search engine by freefind advanced

loaded 2018-11-17 19:15:31 • last modified 2010-11-18 10:43:29
Privacy PolicyDisclaimer
• wx.awcolley.com is powered by PmWiki v.2002016 •
• all content (unless otherwise noted) © 2018 A W Colley